createdAt,value
2022-07-29T00:00:03.274Z,66.69
2022-07-29T00:02:56.085Z,66.69
2022-07-29T00:05:45.560Z,66.78
2022-07-29T00:08:46.464Z,66.86
2022-07-29T00:11:36.201Z,67.01
2022-07-29T00:14:31.263Z,67.12
2022-07-29T00:17:55.481Z,67.35
2022-07-29T00:21:24.580Z,67.51
2022-07-29T00:25:13.513Z,67.73
2022-07-29T00:29:32.453Z,67.90
2022-07-29T00:33:10.326Z,68.18
2022-07-29T00:36:19.254Z,68.24
2022-07-29T00:39:46.939Z,68.25
2022-07-29T00:42:48.780Z,68.15
2022-07-29T00:46:32.082Z,68.39
2022-07-29T00:49:30.973Z,68.60
2022-07-29T00:52:21.827Z,68.79
2022-07-29T00:55:13.188Z,68.96
2022-07-29T00:58:07.315Z,68.97
2022-07-29T01:01:32.735Z,69.08
2022-07-29T01:04:30.831Z,69.28
2022-07-29T01:07:02.485Z,69.65
2022-07-29T01:09:58.346Z,69.66
2022-07-29T01:13:28.182Z,69.70
2022-07-29T01:16:34.304Z,70.15
2022-07-29T01:19:29.599Z,70.06
2022-07-29T01:23:05.129Z,69.90
2022-07-29T01:26:11.557Z,69.65
2022-07-29T01:29:08.608Z,69.57
2022-07-29T01:32:47.193Z,69.17
2022-07-29T01:36:35.507Z,68.98
2022-07-29T01:40:27.128Z,68.90
2022-07-29T01:44:22.299Z,69.05
2022-07-29T01:47:22.145Z,69.25
2022-07-29T01:50:28.747Z,69.42
2022-07-29T01:53:05.708Z,69.32
2022-07-29T01:55:59.022Z,69.50
2022-07-29T01:58:33.725Z,69.62
2022-07-29T02:02:13.366Z,69.52
2022-07-29T02:05:32.298Z,69.65
2022-07-29T02:08:49.213Z,69.74
2022-07-29T02:12:37.174Z,69.60
2022-07-29T02:16:28.035Z,69.78
2022-07-29T02:19:56.262Z,69.97
2022-07-29T02:23:50.030Z,70.35
2022-07-29T02:27:40.058Z,70.40
2022-07-29T02:31:28.371Z,70.53
2022-07-29T02:35:16.358Z,70.61
2022-07-29T02:38:43.131Z,70.59
2022-07-29T02:42:34.085Z,70.88
2022-07-29T02:45:31.141Z,71.01
2022-07-29T02:48:59.963Z,71.39
2022-07-29T02:52:53.034Z,71.43
2022-07-29T02:56:47.233Z,71.59
2022-07-29T03:00:35.571Z,71.67
2022-07-29T03:04:23.566Z,71.76
2022-07-29T03:07:51.802Z,71.78
2022-07-29T03:11:40.108Z,71.76
2022-07-29T03:15:33.050Z,71.79
2022-07-29T03:19:21.908Z,71.82
2022-07-29T03:23:10.720Z,71.86
2022-07-29T03:26:39.470Z,71.74
2022-07-29T03:30:08.962Z,71.76
2022-07-29T03:33:56.924Z,71.61
2022-07-29T03:37:45.183Z,71.44
2022-07-29T03:41:33.436Z,71.29
2022-07-29T03:45:18.517Z,71.25
2022-07-29T03:48:50.781Z,70.91
2022-07-29T03:52:38.769Z,70.72
2022-07-29T03:56:26.712Z,71.06
2022-07-29T04:00:15.598Z,71.66
2022-07-29T04:04:04.212Z,71.86
2022-07-29T04:07:53.090Z,71.90
2022-07-29T04:11:21.098Z,72.23
2022-07-29T04:15:06.356Z,72.77
2022-07-29T04:18:50.295Z,72.83
2022-07-29T04:21:26.382Z,72.93
2022-07-29T04:24:22.720Z,73.09
2022-07-29T04:27:48.112Z,73.18
2022-07-29T04:31:36.758Z,73.21
2022-07-29T04:35:25.115Z,73.00
2022-07-29T04:38:46.940Z,72.91
2022-07-29T04:42:35.566Z,72.62
2022-07-29T04:46:35.081Z,72.60
2022-07-29T04:50:23.720Z,72.35
2022-07-29T04:54:12.802Z,72.67
2022-07-29T04:58:01.878Z,72.64
2022-07-29T05:01:51.537Z,72.68
2022-07-29T05:05:40.198Z,72.66
2022-07-29T05:09:25.007Z,72.66
2022-07-29T05:13:13.970Z,72.71
2022-07-29T05:17:02.579Z,72.87
2022-07-29T05:20:34.230Z,72.55
2022-07-29T05:24:03.254Z,72.68
2022-07-29T05:27:51.163Z,72.55
2022-07-29T05:31:39.729Z,72.48
2022-07-29T05:35:28.720Z,72.46
2022-07-29T05:39:17.531Z,72.45
2022-07-29T05:43:09.775Z,72.54
2022-07-29T05:46:21.330Z,72.52
2022-07-29T05:50:10.018Z,72.46
2022-07-29T05:53:58.578Z,72.55
2022-07-29T05:57:47.122Z,72.51
2022-07-29T06:01:36.020Z,72.65
2022-07-29T06:05:24.725Z,72.76
2022-07-29T06:08:53.486Z,72.85
2022-07-29T06:11:34.570Z,72.34
2022-07-29T06:14:37.452Z,72.30
2022-07-29T06:17:25.024Z,72.29
2022-07-29T06:20:26.961Z,72.39
2022-07-29T06:23:19.687Z,72.40
2022-07-29T06:26:48.084Z,72.48
2022-07-29T06:30:20.252Z,72.62
2022-07-29T06:34:08.775Z,72.63
2022-07-29T06:37:56.737Z,72.54
2022-07-29T06:41:48.000Z,72.37
2022-07-29T06:45:36.238Z,72.12
2022-07-29T06:49:05.135Z,71.93
2022-07-29T06:52:54.797Z,71.55
2022-07-29T06:56:43.402Z,71.23
2022-07-29T07:00:31.697Z,70.69
2022-07-29T07:03:40.085Z,70.55
2022-07-29T07:07:09.102Z,70.60
2022-07-29T07:10:02.647Z,70.66
2022-07-29T07:13:15.723Z,70.53
2022-07-29T07:16:41.005Z,70.43
2022-07-29T07:20:09.151Z,70.06
2022-07-29T07:22:40.130Z,69.87
2022-07-29T07:25:10.426Z,69.85
2022-07-29T07:28:38.842Z,69.71
2022-07-29T07:31:45.521Z,69.58
2022-07-29T07:35:06.154Z,69.22
2022-07-29T07:37:35.745Z,68.98
2022-07-29T07:40:05.589Z,68.56
2022-07-29T07:42:43.479Z,68.04
2022-07-29T07:45:16.518Z,68.18
2022-07-29T07:47:45.321Z,67.91
2022-07-29T07:50:18.722Z,67.91
2022-07-29T07:53:09.401Z,67.94
2022-07-29T07:58:31.104Z,66.91
2022-07-29T08:01:00.218Z,67.03
2022-07-29T08:03:29.485Z,65.91
2022-07-29T08:05:59.553Z,65.14
2022-07-29T08:08:32.744Z,65.27
2022-07-29T08:11:37.872Z,65.36
2022-07-29T08:14:29.924Z,64.88
2022-07-29T08:17:01.066Z,64.52
2022-07-29T08:19:29.871Z,64.16
2022-07-29T08:22:38.469Z,62.93
2022-07-29T08:26:27.204Z,62.56
2022-07-29T08:30:15.633Z,62.27
2022-07-29T08:34:04.024Z,62.39
2022-07-29T08:37:33.917Z,61.94
2022-07-29T08:41:06.458Z,61.55
2022-07-29T08:44:31.845Z,61.48
2022-07-29T08:47:46.681Z,61.17
2022-07-29T08:51:10.436Z,60.74
2022-07-29T08:54:47.344Z,60.31
2022-07-29T08:58:05.437Z,59.69
2022-07-29T09:00:56.948Z,58.66
2022-07-29T09:03:35.790Z,58.52
2022-07-29T09:06:07.476Z,57.87
2022-07-29T09:08:36.744Z,57.83
2022-07-29T09:11:05.318Z,57.86
2022-07-29T09:13:36.172Z,58.15
2022-07-29T09:16:09.562Z,56.96
2022-07-29T09:18:42.959Z,55.71
2022-07-29T09:21:31.722Z,55.54
2022-07-29T09:24:08.001Z,55.67
2022-07-29T09:26:38.676Z,55.43
2022-07-29T09:29:22.330Z,55.61
2022-07-29T09:31:54.384Z,55.79
2022-07-29T09:34:25.731Z,55.48
2022-07-29T09:36:56.356Z,55.60
2022-07-29T09:39:58.298Z,54.66
2022-07-29T09:42:33.980Z,55.06
2022-07-29T09:45:03.714Z,55.01
2022-07-29T09:47:48.029Z,54.79
2022-07-29T09:50:43.356Z,53.62
2022-07-29T09:53:41.240Z,53.14
2022-07-29T09:57:26.162Z,52.73
2022-07-29T10:00:20.897Z,52.93
2022-07-29T10:02:50.488Z,52.85
2022-07-29T10:05:41.379Z,52.20
2022-07-29T10:08:11.544Z,51.33
2022-07-29T10:11:51.718Z,51.95
2022-07-29T10:14:20.427Z,52.67
2022-07-29T10:16:49.862Z,52.97
2022-07-29T10:19:43.355Z,53.02
2022-07-29T10:22:51.866Z,52.54
2022-07-29T10:25:51.259Z,52.73
2022-07-29T10:29:38.938Z,50.58
2022-07-29T10:32:38.201Z,50.34
2022-07-29T10:36:26.712Z,51.09
2022-07-29T10:40:07.712Z,50.94
2022-07-29T10:43:37.822Z,49.26
2022-07-29T10:46:28.594Z,48.93
2022-07-29T10:49:34.221Z,49.86
2022-07-29T10:52:30.421Z,50.16
2022-07-29T10:55:05.902Z,49.92
2022-07-29T10:58:52.924Z,50.10
2022-07-29T11:01:37.126Z,50.36
2022-07-29T11:04:10.389Z,50.42
2022-07-29T11:07:04.189Z,50.47
2022-07-29T11:09:38.370Z,50.62
2022-07-29T11:12:39.729Z,50.95
2022-07-29T11:15:13.584Z,50.86
2022-07-29T11:17:59.663Z,50.98
2022-07-29T11:20:47.826Z,50.88
2022-07-29T11:23:42.697Z,50.68
2022-07-29T11:26:35.421Z,50.78
2022-07-29T11:30:04.796Z,50.98
2022-07-29T11:37:28.969Z,50.65
2022-07-29T11:40:37.623Z,50.11
2022-07-29T11:44:04.989Z,50.14
2022-07-29T11:47:14.984Z,50.13
2022-07-29T11:50:19.279Z,50.31
2022-07-29T11:53:00.381Z,50.62
2022-07-29T11:55:53.838Z,50.37
2022-07-29T11:59:00.535Z,50.35
2022-07-29T12:02:12.151Z,50.32
2022-07-29T12:06:03.541Z,50.38
2022-07-29T12:07:03.724Z,51.01
2022-07-29T12:09:52.493Z,50.28
2022-07-29T12:13:45.803Z,50.95
2022-07-29T12:17:38.318Z,51.75
2022-07-29T12:21:27.132Z,52.20
2022-07-29T12:25:32.819Z,52.45
2022-07-29T12:29:34.728Z,53.12
2022-07-29T12:33:24.798Z,53.77
2022-07-29T12:37:13.697Z,54.03
2022-07-29T12:41:02.791Z,54.53
2022-07-29T12:44:53.534Z,54.66
2022-07-29T12:48:54.637Z,54.86
2022-07-29T12:52:43.596Z,55.47
2022-07-29T12:56:45.266Z,56.06
2022-07-29T13:00:46.979Z,56.44
2022-07-29T13:04:34.540Z,56.84
2022-07-29T13:08:05.144Z,57.41
2022-07-29T13:12:10.355Z,58.44
2022-07-29T13:15:42.773Z,59.31
2022-07-29T13:18:51.866Z,59.84
2022-07-29T13:21:48.162Z,60.14
2022-07-29T13:25:10.121Z,59.94
2022-07-29T13:28:46.144Z,60.14
2022-07-29T13:32:34.037Z,60.53
2022-07-29T13:35:39.977Z,61.08
2022-07-29T13:39:28.823Z,61.14
2022-07-29T13:43:17.561Z,61.18
2022-07-29T13:47:06.398Z,61.42
2022-07-29T13:50:55.269Z,61.88
2022-07-29T13:54:44.227Z,62.56
2022-07-29T13:58:33.111Z,63.29
2022-07-29T14:02:25.730Z,63.90
2022-07-29T14:06:15.102Z,64.22
2022-07-29T14:10:04.195Z,64.73
2022-07-29T14:13:53.127Z,64.77
2022-07-29T14:17:42.014Z,64.73
2022-07-29T14:21:31.005Z,64.97
2022-07-29T14:25:22.573Z,65.35
2022-07-29T14:29:12.038Z,65.96
2022-07-29T14:31:57.417Z,66.92
2022-07-29T14:34:50.140Z,67.66
2022-07-29T14:38:18.292Z,68.10
2022-07-29T14:41:08.041Z,68.16
2022-07-29T14:44:55.827Z,68.35
2022-07-29T14:48:24.677Z,68.50
2022-07-29T14:52:12.709Z,68.37
2022-07-29T14:56:06.044Z,68.56
2022-07-29T14:59:44.231Z,68.79
2022-07-29T15:03:33.821Z,69.21
2022-07-29T15:06:42.871Z,69.29
2022-07-29T15:09:31.682Z,69.71
2022-07-29T15:12:00.139Z,69.64
2022-07-29T15:14:28.464Z,69.87
2022-07-29T15:16:56.606Z,70.08
2022-07-29T15:19:25.668Z,70.23
2022-07-29T15:21:59.737Z,70.44
2022-07-29T15:24:28.309Z,70.58
2022-07-29T15:26:57.131Z,70.35
2022-07-29T15:29:25.402Z,70.03
2022-07-29T15:31:54.404Z,69.96
2022-07-29T15:34:24.292Z,69.82
2022-07-29T15:36:53.528Z,70.07
2022-07-29T15:39:23.414Z,70.42
2022-07-29T15:41:53.625Z,70.66
2022-07-29T15:44:25.228Z,71.01
2022-07-29T15:47:09.081Z,71.25
2022-07-29T15:50:05.627Z,71.17
2022-07-29T15:52:37.810Z,70.91
2022-07-29T15:55:12.821Z,70.69
2022-07-29T15:57:41.919Z,70.25
2022-07-29T16:00:12.140Z,69.94
2022-07-29T16:02:40.253Z,69.75
2022-07-29T16:05:09.729Z,69.69
2022-07-29T16:07:38.056Z,69.47
2022-07-29T16:10:07.974Z,69.32
2022-07-29T16:12:36.025Z,69.46
2022-07-29T16:15:09.458Z,69.60
2022-07-29T16:17:39.230Z,69.59
2022-07-29T16:20:08.740Z,69.51
2022-07-29T16:22:38.655Z,69.58
2022-07-29T16:25:07.374Z,69.42
2022-07-29T16:27:37.820Z,69.54
2022-07-29T16:30:10.845Z,70.00
2022-07-29T16:32:39.924Z,70.03
2022-07-29T16:35:10.474Z,69.63
2022-07-29T16:38:04.047Z,69.45
2022-07-29T16:40:56.743Z,69.09
2022-07-29T16:43:45.923Z,68.69
2022-07-29T16:46:39.096Z,68.15
2022-07-29T16:49:39.721Z,67.46
2022-07-29T16:52:52.873Z,66.81
2022-07-29T16:55:42.474Z,66.55
2022-07-29T16:58:59.611Z,66.65
2022-07-29T17:01:48.362Z,66.47
2022-07-29T17:05:04.534Z,66.57
2022-07-29T17:07:38.622Z,66.67
2022-07-29T17:11:06.677Z,66.80
2022-07-29T17:14:24.020Z,67.13
2022-07-29T17:17:56.510Z,67.90
2022-07-29T17:21:26.010Z,68.30
2022-07-29T17:24:23.735Z,68.45
2022-07-29T17:27:20.301Z,69.01
2022-07-29T17:30:59.872Z,69.25
2022-07-29T17:34:47.956Z,69.53
2022-07-29T17:38:32.701Z,69.73
2022-07-29T17:42:03.628Z,70.07
2022-07-29T17:45:51.945Z,70.48
2022-07-29T17:49:20.528Z,70.48
2022-07-29T17:53:05.183Z,70.49
2022-07-29T17:56:39.745Z,70.32
2022-07-29T18:00:09.017Z,70.18
2022-07-29T18:03:38.343Z,69.83
2022-07-29T18:06:48.878Z,69.64
2022-07-29T18:10:17.832Z,69.42
2022-07-29T18:13:50.634Z,69.01
2022-07-29T18:17:52.992Z,68.86
2022-07-29T18:20:48.160Z,68.67
2022-07-29T18:23:17.309Z,68.58
2022-07-29T18:25:45.846Z,68.63
2022-07-29T18:28:18.709Z,68.59
2022-07-29T18:30:55.056Z,68.47
2022-07-29T18:33:23.585Z,68.37
2022-07-29T18:36:10.002Z,68.58
2022-07-29T18:39:39.637Z,68.64
2022-07-29T18:42:38.322Z,68.72
2022-07-29T18:45:31.613Z,68.72
2022-07-29T18:48:28.940Z,68.77
2022-07-29T18:50:59.665Z,69.01
2022-07-29T18:53:29.520Z,69.24
2022-07-29T18:56:42.881Z,69.32
2022-07-29T18:59:48.021Z,69.44
2022-07-29T19:02:17.299Z,69.51
2022-07-29T19:05:13.486Z,69.56
2022-07-29T19:07:45.952Z,69.57
2022-07-29T19:10:33.953Z,69.63
2022-07-29T19:13:03.178Z,69.67
2022-07-29T19:16:01.112Z,69.84
2022-07-29T19:19:49.659Z,69.93
2022-07-29T19:24:01.845Z,70.03
2022-07-29T19:27:30.604Z,70.04
2022-07-29T19:31:04.690Z,69.97
2022-07-29T19:34:35.978Z,70.05
2022-07-29T19:38:00.130Z,69.75
2022-07-29T19:41:29.037Z,69.69
2022-07-29T19:44:16.026Z,69.99
2022-07-29T19:47:25.246Z,70.30
2022-07-29T19:50:35.498Z,70.89
2022-07-29T19:53:36.046Z,71.05
2022-07-29T19:57:07.617Z,70.96
2022-07-29T20:00:00.478Z,71.00
2022-07-29T20:03:37.169Z,70.96
2022-07-29T20:06:26.351Z,71.01
2022-07-29T20:09:17.729Z,71.15
2022-07-29T20:12:49.154Z,71.15
2022-07-29T20:16:41.293Z,71.25
2022-07-29T20:19:31.530Z,71.27
2022-07-29T20:22:21.154Z,71.41
2022-07-29T20:25:14.209Z,71.79
2022-07-29T20:28:45.258Z,71.85
2022-07-29T20:32:03.353Z,71.86
2022-07-29T20:34:36.634Z,72.26
2022-07-29T20:37:52.319Z,72.38
2022-07-29T20:40:46.376Z,72.53
2022-07-29T20:44:14.618Z,72.79
2022-07-29T20:47:23.880Z,72.85
2022-07-29T20:50:32.273Z,72.99
2022-07-29T20:53:28.854Z,73.05
2022-07-29T20:56:41.683Z,73.09
2022-07-29T20:59:36.310Z,73.13
2022-07-29T21:02:53.219Z,73.22
2022-07-29T21:05:53.060Z,73.10
2022-07-29T21:08:45.552Z,73.26
2022-07-29T21:11:44.172Z,73.28
2022-07-29T21:14:29.857Z,73.13
2022-07-29T21:17:48.828Z,73.12
2022-07-29T21:21:24.537Z,73.08
2022-07-29T21:25:12.184Z,72.89
2022-07-29T21:28:07.834Z,73.02
2022-07-29T21:30:36.502Z,73.14
2022-07-29T21:33:04.899Z,73.11
2022-07-29T21:36:10.289Z,73.22
2022-07-29T21:38:21.395Z,73.26
2022-07-29T21:40:51.626Z,73.35
2022-07-29T21:43:20.465Z,73.53
2022-07-29T21:46:44.837Z,73.55
2022-07-29T21:49:37.205Z,73.50
2022-07-29T21:52:57.205Z,73.57
2022-07-29T21:55:47.744Z,73.48
2022-07-29T21:59:09.879Z,73.61
2022-07-29T22:01:45.147Z,73.68
2022-07-29T22:05:17.713Z,73.77
2022-07-29T22:09:06.589Z,73.75
2022-07-29T22:11:56.462Z,73.75
2022-07-29T22:15:24.486Z,73.92
2022-07-29T22:18:53.095Z,74.02
2022-07-29T22:21:49.651Z,73.99
2022-07-29T22:25:38.738Z,74.10
2022-07-29T22:29:10.492Z,74.09
2022-07-29T22:32:38.336Z,74.03
2022-07-29T22:36:26.282Z,74.09
2022-07-29T22:40:14.526Z,74.12
2022-07-29T22:44:02.219Z,73.88
2022-07-29T22:47:46.720Z,73.80
2022-07-29T22:51:36.219Z,73.51
2022-07-29T22:54:48.626Z,73.48
2022-07-29T22:58:32.307Z,73.42
2022-07-29T23:02:20.556Z,73.57
2022-07-29T23:05:51.170Z,73.66
2022-07-29T23:09:39.146Z,73.70
2022-07-29T23:13:07.559Z,73.77
2022-07-29T23:16:43.244Z,73.87
2022-07-29T23:19:56.103Z,74.16
2022-07-29T23:22:45.337Z,74.29
2022-07-29T23:25:13.522Z,74.47
2022-07-29T23:27:43.416Z,74.45
2022-07-29T23:30:13.041Z,74.69
2022-07-29T23:32:41.352Z,74.94
2022-07-29T23:35:12.123Z,74.87
2022-07-29T23:37:43.217Z,75.06
2022-07-29T23:40:14.731Z,75.20
2022-07-29T23:42:43.646Z,75.26
2022-07-29T23:45:14.314Z,75.62
2022-07-29T23:47:42.541Z,76.19
2022-07-29T23:50:12.905Z,76.31
2022-07-29T23:52:43.405Z,76.92
2022-07-29T23:55:36.908Z,76.46
2022-07-29T23:58:03.601Z,76.55
